sensor_id;sensor_type;location;lat;lon;timestamp;P1;durP1;ratioP1;P2;durP2;ratioP2
10890;SDS011;5498;50.928;11.598;2023-04-06T00:02:13;313.20;;;81.93;;
10890;SDS011;5498;50.928;11.598;2023-04-06T00:05:15;311.37;;;81.87;;
10890;SDS011;5498;50.928;11.598;2023-04-06T00:08:17;310.80;;;81.63;;
10890;SDS011;5498;50.928;11.598;2023-04-06T00:11:22;309.50;;;81.23;;
10890;SDS011;5498;50.928;11.598;2023-04-06T00:14:25;309.93;;;84.50;;
10890;SDS011;5498;50.928;11.598;2023-04-06T00:17:26;307.33;;;84.83;;
10890;SDS011;5498;50.928;11.598;2023-04-06T00:20:28;316.20;;;85.03;;
10890;SDS011;5498;50.928;11.598;2023-04-06T00:23:30;316.10;;;82.50;;
10890;SDS011;5498;50.928;11.598;2023-04-06T00:26:34;316.57;;;85.33;;
10890;SDS011;5498;50.928;11.598;2023-04-06T00:29:35;320.17;;;85.47;;
10890;SDS011;5498;50.928;11.598;2023-04-06T00:32:38;317.57;;;85.20;;
10890;SDS011;5498;50.928;11.598;2023-04-06T00:35:40;315.50;;;84.33;;
10890;SDS011;5498;50.928;11.598;2023-04-06T00:38:48;316.30;;;91.13;;
10890;SDS011;5498;50.928;11.598;2023-04-06T00:41:51;306.57;;;84.40;;
10890;SDS011;5498;50.928;11.598;2023-04-06T00:44:55;305.03;;;83.87;;
10890;SDS011;5498;50.928;11.598;2023-04-06T00:47:59;305.57;;;85.17;;
10890;SDS011;5498;50.928;11.598;2023-04-06T00:51:01;303.87;;;85.50;;
10890;SDS011;5498;50.928;11.598;2023-04-06T00:54:03;304.07;;;87.13;;
10890;SDS011;5498;50.928;11.598;2023-04-06T00:57:07;298.17;;;84.50;;
10890;SDS011;5498;50.928;11.598;2023-04-06T01:00:09;296.60;;;84.00;;
10890;SDS011;5498;50.928;11.598;2023-04-06T01:03:13;293.10;;;84.87;;
10890;SDS011;5498;50.928;11.598;2023-04-06T01:06:15;288.40;;;83.70;;
10890;SDS011;5498;50.928;11.598;2023-04-06T01:09:17;288.43;;;87.60;;
10890;SDS011;5498;50.928;11.598;2023-04-06T01:12:20;282.07;;;84.40;;
10890;SDS011;5498;50.928;11.598;2023-04-06T01:15:22;296.17;;;88.63;;
10890;SDS011;5498;50.928;11.598;2023-04-06T01:18:25;295.00;;;85.50;;
10890;SDS011;5498;50.928;11.598;2023-04-06T01:21:28;294.00;;;87.10;;
10890;SDS011;5498;50.928;11.598;2023-04-06T01:24:31;287.93;;;84.93;;
10890;SDS011;5498;50.928;11.598;2023-04-06T01:27:33;287.10;;;88.43;;
10890;SDS011;5498;50.928;11.598;2023-04-06T01:30:35;283.70;;;86.07;;
10890;SDS011;5498;50.928;11.598;2023-04-06T01:33:37;279.57;;;83.50;;
10890;SDS011;5498;50.928;11.598;2023-04-06T01:36:39;276.03;;;87.07;;
10890;SDS011;5498;50.928;11.598;2023-04-06T01:39:42;275.13;;;83.90;;
10890;SDS011;5498;50.928;11.598;2023-04-06T01:42:46;275.67;;;85.57;;
10890;SDS011;5498;50.928;11.598;2023-04-06T01:45:48;276.37;;;85.93;;
10890;SDS011;5498;50.928;11.598;2023-04-06T01:48:50;278.20;;;85.30;;
10890;SDS011;5498;50.928;11.598;2023-04-06T01:51:51;272.93;;;84.70;;
10890;SDS011;5498;50.928;11.598;2023-04-06T01:54:55;268.67;;;86.20;;
10890;SDS011;5498;50.928;11.598;2023-04-06T01:57:57;269.87;;;87.37;;
10890;SDS011;5498;50.928;11.598;2023-04-06T02:00:59;266.90;;;86.20;;
10890;SDS011;5498;50.928;11.598;2023-04-06T02:04:01;267.33;;;85.57;;
10890;SDS011;5498;50.928;11.598;2023-04-06T02:07:02;263.83;;;86.37;;
10890;SDS011;5498;50.928;11.598;2023-04-06T02:10:10;266.30;;;84.80;;
10890;SDS011;5498;50.928;11.598;2023-04-06T02:13:13;265.07;;;83.57;;
10890;SDS011;5498;50.928;11.598;2023-04-06T02:16:15;258.37;;;82.63;;
10890;SDS011;5498;50.928;11.598;2023-04-06T02:19:17;266.73;;;82.90;;
10890;SDS011;5498;50.928;11.598;2023-04-06T02:22:19;269.10;;;86.97;;
10890;SDS011;5498;50.928;11.598;2023-04-06T02:25:22;267.50;;;87.03;;
10890;SDS011;5498;50.928;11.598;2023-04-06T02:28:24;265.07;;;87.50;;
10890;SDS011;5498;50.928;11.598;2023-04-06T02:31:26;263.53;;;83.83;;
10890;SDS011;5498;50.928;11.598;2023-04-06T02:34:28;265.17;;;83.87;;
10890;SDS011;5498;50.928;11.598;2023-04-06T02:37:30;266.03;;;85.70;;
10890;SDS011;5498;50.928;11.598;2023-04-06T02:40:33;266.87;;;87.47;;
10890;SDS011;5498;50.928;11.598;2023-04-06T02:43:35;264.10;;;84.00;;
10890;SDS011;5498;50.928;11.598;2023-04-06T02:46:37;267.67;;;87.17;;
10890;SDS011;5498;50.928;11.598;2023-04-06T02:49:38;267.60;;;87.10;;
10890;SDS011;5498;50.928;11.598;2023-04-06T02:52:41;265.10;;;85.80;;
10890;SDS011;5498;50.928;11.598;2023-04-06T02:55:44;265.67;;;88.37;;
10890;SDS011;5498;50.928;11.598;2023-04-06T02:58:46;261.83;;;87.43;;
10890;SDS011;5498;50.928;11.598;2023-04-06T03:01:47;259.00;;;86.17;;
10890;SDS011;5498;50.928;11.598;2023-04-06T03:04:49;257.30;;;85.97;;
10890;SDS011;5498;50.928;11.598;2023-04-06T03:07:51;256.70;;;86.23;;
10890;SDS011;5498;50.928;11.598;2023-04-06T03:10:54;255.10;;;85.87;;
10890;SDS011;5498;50.928;11.598;2023-04-06T03:13:56;252.83;;;86.00;;
10890;SDS011;5498;50.928;11.598;2023-04-06T03:16:59;249.20;;;85.70;;
10890;SDS011;5498;50.928;11.598;2023-04-06T03:20:01;248.57;;;86.60;;
10890;SDS011;5498;50.928;11.598;2023-04-06T03:23:03;244.40;;;84.73;;
10890;SDS011;5498;50.928;11.598;2023-04-06T03:26:07;265.53;;;82.70;;
10890;SDS011;5498;50.928;11.598;2023-04-06T03:29:09;276.63;;;82.63;;
10890;SDS011;5498;50.928;11.598;2023-04-06T03:32:10;275.07;;;85.63;;
10890;SDS011;5498;50.928;11.598;2023-04-06T03:35:12;271.67;;;82.90;;
10890;SDS011;5498;50.928;11.598;2023-04-06T03:38:14;267.03;;;83.17;;
10890;SDS011;5498;50.928;11.598;2023-04-06T03:41:18;263.90;;;84.17;;
10890;SDS011;5498;50.928;11.598;2023-04-06T03:44:19;260.83;;;83.17;;
10890;SDS011;5498;50.928;11.598;2023-04-06T03:47:21;263.73;;;84.07;;
10890;SDS011;5498;50.928;11.598;2023-04-06T03:50:23;258.70;;;86.87;;
10890;SDS011;5498;50.928;11.598;2023-04-06T03:53:25;257.47;;;83.57;;
10890;SDS011;5498;50.928;11.598;2023-04-06T03:56:28;255.93;;;84.57;;
10890;SDS011;5498;50.928;11.598;2023-04-06T03:59:30;253.77;;;83.93;;
10890;SDS011;5498;50.928;11.598;2023-04-06T04:02:31;246.73;;;80.53;;
10890;SDS011;5498;50.928;11.598;2023-04-06T04:05:33;247.83;;;82.73;;
10890;SDS011;5498;50.928;11.598;2023-04-06T04:08:35;242.80;;;80.40;;
10890;SDS011;5498;50.928;11.598;2023-04-06T04:11:38;249.43;;;83.67;;
10890;SDS011;5498;50.928;11.598;2023-04-06T04:14:40;243.60;;;82.00;;
10890;SDS011;5498;50.928;11.598;2023-04-06T04:17:42;240.83;;;84.07;;
10890;SDS011;5498;50.928;11.598;2023-04-06T04:20:46;240.90;;;81.53;;
10890;SDS011;5498;50.928;11.598;2023-04-06T04:23:48;238.53;;;80.97;;
10890;SDS011;5498;50.928;11.598;2023-04-06T04:26:51;234.93;;;75.60;;
10890;SDS011;5498;50.928;11.598;2023-04-06T04:29:53;236.13;;;80.23;;
10890;SDS011;5498;50.928;11.598;2023-04-06T04:32:55;235.53;;;82.23;;
10890;SDS011;5498;50.928;11.598;2023-04-06T04:35:57;232.23;;;79.27;;
10890;SDS011;5498;50.928;11.598;2023-04-06T04:38:59;232.23;;;76.70;;
10890;SDS011;5498;50.928;11.598;2023-04-06T04:42:02;238.50;;;77.73;;
10890;SDS011;5498;50.928;11.598;2023-04-06T04:45:04;239.63;;;77.97;;
10890;SDS011;5498;50.928;11.598;2023-04-06T04:48:07;242.70;;;80.03;;
10890;SDS011;5498;50.928;11.598;2023-04-06T04:51:09;235.57;;;75.37;;
10890;SDS011;5498;50.928;11.598;2023-04-06T04:54:11;275.17;;;79.77;;
10890;SDS011;5498;50.928;11.598;2023-04-06T04:57:14;249.77;;;78.47;;
10890;SDS011;5498;50.928;11.598;2023-04-06T05:00:16;246.93;;;79.73;;
10890;SDS011;5498;50.928;11.598;2023-04-06T05:03:19;269.90;;;81.27;;
10890;SDS011;5498;50.928;11.598;2023-04-06T05:06:24;268.23;;;77.70;;
10890;SDS011;5498;50.928;11.598;2023-04-06T05:09:26;269.20;;;78.07;;
10890;SDS011;5498;50.928;11.598;2023-04-06T05:12:31;274.30;;;80.93;;
10890;SDS011;5498;50.928;11.598;2023-04-06T05:15:33;262.80;;;77.63;;
10890;SDS011;5498;50.928;11.598;2023-04-06T05:18:37;251.17;;;77.33;;
10890;SDS011;5498;50.928;11.598;2023-04-06T05:21:39;258.70;;;76.53;;
10890;SDS011;5498;50.928;11.598;2023-04-06T05:24:41;258.90;;;77.70;;
10890;SDS011;5498;50.928;11.598;2023-04-06T05:27:44;256.70;;;76.00;;
10890;SDS011;5498;50.928;11.598;2023-04-06T05:30:46;281.07;;;76.47;;
10890;SDS011;5498;50.928;11.598;2023-04-06T05:33:48;298.67;;;77.90;;
10890;SDS011;5498;50.928;11.598;2023-04-06T05:36:50;309.53;;;75.13;;
10890;SDS011;5498;50.928;11.598;2023-04-06T05:39:52;285.50;;;67.50;;
10890;SDS011;5498;50.928;11.598;2023-04-06T05:42:55;471.77;;;60.67;;
10890;SDS011;5498;50.928;11.598;2023-04-06T05:45:57;431.47;;;63.40;;
10890;SDS011;5498;50.928;11.598;2023-04-06T05:48:59;297.73;;;48.80;;
10890;SDS011;5498;50.928;11.598;2023-04-06T05:52:01;461.30;;;61.20;;
10890;SDS011;5498;50.928;11.598;2023-04-06T05:55:04;364.17;;;48.10;;
10890;SDS011;5498;50.928;11.598;2023-04-06T05:58:08;520.27;;;70.50;;
10890;SDS011;5498;50.928;11.598;2023-04-06T06:01:10;520.83;;;64.57;;
10890;SDS011;5498;50.928;11.598;2023-04-06T06:04:12;556.10;;;71.80;;
10890;SDS011;5498;50.928;11.598;2023-04-06T06:07:14;548.20;;;68.20;;
10890;SDS011;5498;50.928;11.598;2023-04-06T06:10:16;539.43;;;66.07;;
10890;SDS011;5498;50.928;11.598;2023-04-06T06:13:19;492.83;;;59.47;;
10890;SDS011;5498;50.928;11.598;2023-04-06T06:16:22;376.43;;;68.20;;
10890;SDS011;5498;50.928;11.598;2023-04-06T06:19:23;540.17;;;65.27;;
10890;SDS011;5498;50.928;11.598;2023-04-06T06:22:26;521.13;;;64.33;;
10890;SDS011;5498;50.928;11.598;2023-04-06T06:25:28;533.33;;;66.20;;
10890;SDS011;5498;50.928;11.598;2023-04-06T06:28:32;527.43;;;62.77;;
10890;SDS011;5498;50.928;11.598;2023-04-06T06:31:34;465.10;;;62.37;;
10890;SDS011;5498;50.928;11.598;2023-04-06T06:34:36;472.27;;;61.63;;
10890;SDS011;5498;50.928;11.598;2023-04-06T06:37:39;442.87;;;63.17;;
10890;SDS011;5498;50.928;11.598;2023-04-06T06:40:41;398.37;;;63.47;;
10890;SDS011;5498;50.928;11.598;2023-04-06T06:43:44;432.43;;;69.90;;
10890;SDS011;5498;50.928;11.598;2023-04-06T06:46:46;575.20;;;72.53;;
10890;SDS011;5498;50.928;11.598;2023-04-06T06:49:48;587.53;;;78.63;;
10890;SDS011;5498;50.928;11.598;2023-04-06T06:52:50;601.13;;;86.27;;
10890;SDS011;5498;50.928;11.598;2023-04-06T06:55:51;600.90;;;85.20;;
10890;SDS011;5498;50.928;11.598;2023-04-06T06:58:55;606.00;;;88.93;;
10890;SDS011;5498;50.928;11.598;2023-04-06T07:01:56;612.67;;;107.50;;
10890;SDS011;5498;50.928;11.598;2023-04-06T07:04:58;539.03;;;70.60;;
10890;SDS011;5498;50.928;11.598;2023-04-06T07:08:00;609.63;;;98.70;;
10890;SDS011;5498;50.928;11.598;2023-04-06T07:11:02;256.83;;;75.57;;
10890;SDS011;5498;50.928;11.598;2023-04-06T07:14:05;242.00;;;75.87;;
10890;SDS011;5498;50.928;11.598;2023-04-06T07:17:07;245.73;;;73.70;;
10890;SDS011;5498;50.928;11.598;2023-04-06T07:20:10;255.50;;;79.93;;
10890;SDS011;5498;50.928;11.598;2023-04-06T07:23:12;260.20;;;80.43;;
10890;SDS011;5498;50.928;11.598;2023-04-06T07:26:14;265.33;;;79.03;;
10890;SDS011;5498;50.928;11.598;2023-04-06T07:29:17;289.63;;;74.00;;
10890;SDS011;5498;50.928;11.598;2023-04-06T07:32:19;350.80;;;73.63;;
10890;SDS011;5498;50.928;11.598;2023-04-06T07:35:21;398.23;;;69.70;;
10890;SDS011;5498;50.928;11.598;2023-04-06T07:38:26;300.63;;;80.60;;
10890;SDS011;5498;50.928;11.598;2023-04-06T07:41:27;288.23;;;79.23;;
10890;SDS011;5498;50.928;11.598;2023-04-06T07:44:30;240.17;;;81.37;;
10890;SDS011;5498;50.928;11.598;2023-04-06T07:47:33;266.07;;;80.73;;
10890;SDS011;5498;50.928;11.598;2023-04-06T07:50:35;277.33;;;80.03;;
10890;SDS011;5498;50.928;11.598;2023-04-06T07:53:37;276.57;;;74.27;;
10890;SDS011;5498;50.928;11.598;2023-04-06T07:56:39;288.40;;;80.47;;
10890;SDS011;5498;50.928;11.598;2023-04-06T07:59:42;320.03;;;78.97;;
10890;SDS011;5498;50.928;11.598;2023-04-06T08:02:44;371.33;;;75.80;;
10890;SDS011;5498;50.928;11.598;2023-04-06T08:05:45;345.27;;;76.57;;
10890;SDS011;5498;50.928;11.598;2023-04-06T08:08:47;321.93;;;78.77;;
10890;SDS011;5498;50.928;11.598;2023-04-06T08:11:49;409.00;;;73.47;;
10890;SDS011;5498;50.928;11.598;2023-04-06T08:14:52;442.40;;;73.93;;
10890;SDS011;5498;50.928;11.598;2023-04-06T08:17:54;380.10;;;77.63;;
10890;SDS011;5498;50.928;11.598;2023-04-06T08:20:57;292.10;;;85.97;;
10890;SDS011;5498;50.928;11.598;2023-04-06T08:23:59;287.10;;;82.77;;
10890;SDS011;5498;50.928;11.598;2023-04-06T08:27:01;381.93;;;77.57;;
10890;SDS011;5498;50.928;11.598;2023-04-06T08:30:05;307.23;;;80.97;;
10890;SDS011;5498;50.928;11.598;2023-04-06T08:33:08;270.80;;;85.37;;
10890;SDS011;5498;50.928;11.598;2023-04-06T08:36:11;270.27;;;83.30;;
10890;SDS011;5498;50.928;11.598;2023-04-06T08:39:14;272.00;;;84.50;;
10890;SDS011;5498;50.928;11.598;2023-04-06T08:42:18;265.50;;;83.70;;
10890;SDS011;5498;50.928;11.598;2023-04-06T08:45:23;264.13;;;83.70;;
10890;SDS011;5498;50.928;11.598;2023-04-06T08:48:25;260.07;;;83.53;;
10890;SDS011;5498;50.928;11.598;2023-04-06T08:51:28;503.20;;;120.07;;
10890;SDS011;5498;50.928;11.598;2023-04-06T08:54:31;536.80;;;88.03;;
10890;SDS011;5498;50.928;11.598;2023-04-06T08:57:32;426.50;;;74.70;;
10890;SDS011;5498;50.928;11.598;2023-04-06T09:00:38;439.83;;;75.13;;
10890;SDS011;5498;50.928;11.598;2023-04-06T09:03:41;570.20;;;248.33;;
10890;SDS011;5498;50.928;11.598;2023-04-06T09:06:44;575.83;;;246.23;;
10890;SDS011;5498;50.928;11.598;2023-04-06T09:09:46;613.93;;;238.90;;
10890;SDS011;5498;50.928;11.598;2023-04-06T09:12:48;607.83;;;237.13;;
10890;SDS011;5498;50.928;11.598;2023-04-06T09:15:59;635.87;;;240.60;;
10890;SDS011;5498;50.928;11.598;2023-04-06T09:19:24;668.30;;;232.17;;
10890;SDS011;5498;50.928;11.598;2023-04-06T09:22:34;663.53;;;234.43;;
10890;SDS011;5498;50.928;11.598;2023-04-06T09:25:37;684.03;;;236.90;;
10890;SDS011;5498;50.928;11.598;2023-04-06T09:28:45;678.53;;;228.97;;
10890;SDS011;5498;50.928;11.598;2023-04-06T09:31:50;687.93;;;232.37;;
10890;SDS011;5498;50.928;11.598;2023-04-06T09:34:52;686.27;;;235.33;;
10890;SDS011;5498;50.928;11.598;2023-04-06T09:37:54;692.37;;;239.37;;
10890;SDS011;5498;50.928;11.598;2023-04-06T09:40:56;696.27;;;233.10;;
10890;SDS011;5498;50.928;11.598;2023-04-06T09:44:01;693.80;;;222.80;;
10890;SDS011;5498;50.928;11.598;2023-04-06T09:47:06;691.33;;;224.03;;
10890;SDS011;5498;50.928;11.598;2023-04-06T09:50:09;691.83;;;224.70;;
10890;SDS011;5498;50.928;11.598;2023-04-06T09:53:13;695.10;;;212.43;;
10890;SDS011;5498;50.928;11.598;2023-04-06T09:56:16;689.47;;;203.97;;
10890;SDS011;5498;50.928;11.598;2023-04-06T09:59:26;691.33;;;199.73;;
10890;SDS011;5498;50.928;11.598;2023-04-06T10:02:39;679.60;;;186.23;;
10890;SDS011;5498;50.928;11.598;2023-04-06T10:05:52;674.50;;;176.37;;
10890;SDS011;5498;50.928;11.598;2023-04-06T10:08:58;664.63;;;160.43;;
10890;SDS011;5498;50.928;11.598;2023-04-06T10:12:03;667.57;;;162.83;;
10890;SDS011;5498;50.928;11.598;2023-04-06T10:15:07;673.10;;;177.20;;
10890;SDS011;5498;50.928;11.598;2023-04-06T10:18:12;669.93;;;172.83;;
10890;SDS011;5498;50.928;11.598;2023-04-06T10:21:16;672.53;;;174.10;;
10890;SDS011;5498;50.928;11.598;2023-04-06T10:24:24;671.07;;;170.63;;
10890;SDS011;5498;50.928;11.598;2023-04-06T10:27:27;672.10;;;169.40;;
10890;SDS011;5498;50.928;11.598;2023-04-06T10:30:29;677.40;;;178.07;;
10890;SDS011;5498;50.928;11.598;2023-04-06T10:33:33;675.60;;;182.73;;
10890;SDS011;5498;50.928;11.598;2023-04-06T10:36:36;676.30;;;177.77;;
10890;SDS011;5498;50.928;11.598;2023-04-06T10:39:45;670.90;;;173.33;;
10890;SDS011;5498;50.928;11.598;2023-04-06T10:42:48;676.00;;;176.23;;
10890;SDS011;5498;50.928;11.598;2023-04-06T10:45:54;675.93;;;178.17;;
10890;SDS011;5498;50.928;11.598;2023-04-06T10:49:09;671.33;;;171.70;;
10890;SDS011;5498;50.928;11.598;2023-04-06T10:52:11;665.77;;;160.77;;
10890;SDS011;5498;50.928;11.598;2023-04-06T10:55:13;661.97;;;155.27;;
10890;SDS011;5498;50.928;11.598;2023-04-06T10:58:18;657.43;;;146.63;;
10890;SDS011;5498;50.928;11.598;2023-04-06T11:01:21;660.47;;;152.43;;
10890;SDS011;5498;50.928;11.598;2023-04-06T11:04:26;668.50;;;163.30;;
10890;SDS011;5498;50.928;11.598;2023-04-06T11:07:28;675.10;;;169.10;;
10890;SDS011;5498;50.928;11.598;2023-04-06T11:10:30;673.83;;;175.73;;
10890;SDS011;5498;50.928;11.598;2023-04-06T11:13:39;677.20;;;181.33;;
10890;SDS011;5498;50.928;11.598;2023-04-06T11:16:42;675.93;;;177.23;;
10890;SDS011;5498;50.928;11.598;2023-04-06T11:19:48;674.20;;;169.13;;
10890;SDS011;5498;50.928;11.598;2023-04-06T11:22:51;671.13;;;161.70;;
10890;SDS011;5498;50.928;11.598;2023-04-06T11:25:53;669.93;;;158.03;;
10890;SDS011;5498;50.928;11.598;2023-04-06T11:28:55;665.80;;;152.50;;
10890;SDS011;5498;50.928;11.598;2023-04-06T11:31:58;663.57;;;147.43;;
10890;SDS011;5498;50.928;11.598;2023-04-06T11:35:02;665.43;;;150.13;;
10890;SDS011;5498;50.928;11.598;2023-04-06T11:38:05;665.40;;;151.13;;
10890;SDS011;5498;50.928;11.598;2023-04-06T11:41:07;668.20;;;154.97;;
10890;SDS011;5498;50.928;11.598;2023-04-06T11:44:09;669.53;;;164.17;;
10890;SDS011;5498;50.928;11.598;2023-04-06T11:47:10;670.43;;;162.37;;
10890;SDS011;5498;50.928;11.598;2023-04-06T11:50:14;674.23;;;162.27;;
10890;SDS011;5498;50.928;11.598;2023-04-06T11:53:17;677.53;;;165.73;;
10890;SDS011;5498;50.928;11.598;2023-04-06T11:56:25;678.57;;;163.20;;
10890;SDS011;5498;50.928;11.598;2023-04-06T11:59:28;674.90;;;169.67;;
10890;SDS011;5498;50.928;11.598;2023-04-06T12:02:30;675.57;;;172.43;;
10890;SDS011;5498;50.928;11.598;2023-04-06T12:05:33;675.63;;;169.33;;
10890;SDS011;5498;50.928;11.598;2023-04-06T12:08:35;672.43;;;162.17;;
10890;SDS011;5498;50.928;11.598;2023-04-06T12:11:37;670.87;;;159.80;;
10890;SDS011;5498;50.928;11.598;2023-04-06T12:14:39;668.07;;;153.60;;
10890;SDS011;5498;50.928;11.598;2023-04-06T12:17:40;666.20;;;150.30;;
10890;SDS011;5498;50.928;11.598;2023-04-06T12:20:44;664.33;;;149.50;;
10890;SDS011;5498;50.928;11.598;2023-04-06T12:23:45;658.37;;;140.40;;
10890;SDS011;5498;50.928;11.598;2023-04-06T12:26:47;652.63;;;134.17;;
10890;SDS011;5498;50.928;11.598;2023-04-06T12:29:49;650.20;;;133.43;;
10890;SDS011;5498;50.928;11.598;2023-04-06T12:32:51;647.70;;;131.03;;
10890;SDS011;5498;50.928;11.598;2023-04-06T12:35:54;646.90;;;124.67;;
10890;SDS011;5498;50.928;11.598;2023-04-06T12:38:56;649.13;;;125.77;;
10890;SDS011;5498;50.928;11.598;2023-04-06T12:41:58;648.33;;;131.90;;
10890;SDS011;5498;50.928;11.598;2023-04-06T12:45:01;641.43;;;121.77;;
10890;SDS011;5498;50.928;11.598;2023-04-06T12:48:03;651.40;;;130.33;;
10890;SDS011;5498;50.928;11.598;2023-04-06T12:51:07;653.37;;;135.17;;
10890;SDS011;5498;50.928;11.598;2023-04-06T12:54:08;654.13;;;137.90;;
10890;SDS011;5498;50.928;11.598;2023-04-06T12:57:11;653.73;;;140.23;;
10890;SDS011;5498;50.928;11.598;2023-04-06T13:00:14;650.97;;;139.57;;
10890;SDS011;5498;50.928;11.598;2023-04-06T13:03:16;656.87;;;138.20;;
10890;SDS011;5498;50.928;11.598;2023-04-06T13:06:20;653.57;;;139.63;;
10890;SDS011;5498;50.928;11.598;2023-04-06T13:09:22;650.20;;;138.20;;
10890;SDS011;5498;50.928;11.598;2023-04-06T13:12:24;658.87;;;144.53;;
10890;SDS011;5498;50.928;11.598;2023-04-06T13:15:27;659.60;;;139.17;;
10890;SDS011;5498;50.928;11.598;2023-04-06T13:18:29;655.47;;;142.53;;
10890;SDS011;5498;50.928;11.598;2023-04-06T13:21:33;653.97;;;137.17;;
10890;SDS011;5498;50.928;11.598;2023-04-06T13:24:35;647.20;;;130.33;;
10890;SDS011;5498;50.928;11.598;2023-04-06T13:27:37;649.13;;;132.00;;
10890;SDS011;5498;50.928;11.598;2023-04-06T13:30:39;648.07;;;133.20;;
10890;SDS011;5498;50.928;11.598;2023-04-06T13:33:41;649.40;;;135.60;;
10890;SDS011;5498;50.928;11.598;2023-04-06T13:36:44;648.73;;;132.50;;
10890;SDS011;5498;50.928;11.598;2023-04-06T13:39:46;646.83;;;131.53;;
10890;SDS011;5498;50.928;11.598;2023-04-06T13:42:48;647.83;;;134.63;;
10890;SDS011;5498;50.928;11.598;2023-04-06T13:45:51;650.90;;;136.13;;
10890;SDS011;5498;50.928;11.598;2023-04-06T13:48:54;650.57;;;136.00;;
10890;SDS011;5498;50.928;11.598;2023-04-06T13:51:57;651.50;;;136.03;;
10890;SDS011;5498;50.928;11.598;2023-04-06T13:54:59;650.90;;;135.30;;
10890;SDS011;5498;50.928;11.598;2023-04-06T13:58:02;643.67;;;129.10;;
10890;SDS011;5498;50.928;11.598;2023-04-06T14:01:04;637.73;;;124.30;;
10890;SDS011;5498;50.928;11.598;2023-04-06T14:04:09;621.40;;;111.03;;
10890;SDS011;5498;50.928;11.598;2023-04-06T14:07:12;613.33;;;105.07;;
10890;SDS011;5498;50.928;11.598;2023-04-06T14:10:14;607.87;;;100.13;;
10890;SDS011;5498;50.928;11.598;2023-04-06T14:13:16;602.23;;;98.50;;
10890;SDS011;5498;50.928;11.598;2023-04-06T14:16:19;602.33;;;96.53;;
10890;SDS011;5498;50.928;11.598;2023-04-06T14:19:22;604.30;;;97.07;;
10890;SDS011;5498;50.928;11.598;2023-04-06T14:22:26;607.43;;;99.27;;
10890;SDS011;5498;50.928;11.598;2023-04-06T14:25:27;617.33;;;107.53;;
10890;SDS011;5498;50.928;11.598;2023-04-06T14:28:32;614.37;;;105.27;;
10890;SDS011;5498;50.928;11.598;2023-04-06T14:31:34;615.40;;;106.33;;
10890;SDS011;5498;50.928;11.598;2023-04-06T14:34:37;616.77;;;107.83;;
10890;SDS011;5498;50.928;11.598;2023-04-06T14:37:40;610.20;;;104.03;;
10890;SDS011;5498;50.928;11.598;2023-04-06T14:40:42;615.60;;;104.67;;
10890;SDS011;5498;50.928;11.598;2023-04-06T14:43:46;615.00;;;103.33;;
10890;SDS011;5498;50.928;11.598;2023-04-06T14:46:49;614.03;;;106.80;;
10890;SDS011;5498;50.928;11.598;2023-04-06T14:49:52;615.90;;;109.57;;
10890;SDS011;5498;50.928;11.598;2023-04-06T14:52:55;618.73;;;113.73;;
10890;SDS011;5498;50.928;11.598;2023-04-06T14:55:57;626.63;;;114.67;;
10890;SDS011;5498;50.928;11.598;2023-04-06T14:58:59;631.13;;;123.27;;
10890;SDS011;5498;50.928;11.598;2023-04-06T15:02:01;631.67;;;120.80;;
10890;SDS011;5498;50.928;11.598;2023-04-06T15:05:04;630.07;;;118.60;;
10890;SDS011;5498;50.928;11.598;2023-04-06T15:08:08;624.70;;;113.53;;
10890;SDS011;5498;50.928;11.598;2023-04-06T15:11:10;625.23;;;113.27;;
10890;SDS011;5498;50.928;11.598;2023-04-06T15:14:13;616.03;;;108.23;;
10890;SDS011;5498;50.928;11.598;2023-04-06T15:17:15;616.10;;;105.70;;
10890;SDS011;5498;50.928;11.598;2023-04-06T15:20:17;616.50;;;109.70;;
10890;SDS011;5498;50.928;11.598;2023-04-06T15:23:20;620.00;;;109.40;;
10890;SDS011;5498;50.928;11.598;2023-04-06T15:26:22;616.23;;;105.67;;
10890;SDS011;5498;50.928;11.598;2023-04-06T15:29:24;622.00;;;113.10;;
10890;SDS011;5498;50.928;11.598;2023-04-06T15:32:26;623.27;;;116.13;;
10890;SDS011;5498;50.928;11.598;2023-04-06T15:35:28;627.00;;;116.77;;
10890;SDS011;5498;50.928;11.598;2023-04-06T15:38:32;627.80;;;116.70;;
10890;SDS011;5498;50.928;11.598;2023-04-06T15:41:34;634.97;;;120.77;;
10890;SDS011;5498;50.928;11.598;2023-04-06T15:44:36;636.07;;;124.03;;
10890;SDS011;5498;50.928;11.598;2023-04-06T15:47:38;635.10;;;122.57;;
10890;SDS011;5498;50.928;11.598;2023-04-06T15:50:41;630.50;;;124.33;;
10890;SDS011;5498;50.928;11.598;2023-04-06T15:53:44;633.77;;;123.37;;
10890;SDS011;5498;50.928;11.598;2023-04-06T15:56:47;636.83;;;125.27;;
10890;SDS011;5498;50.928;11.598;2023-04-06T15:59:50;634.77;;;124.60;;
10890;SDS011;5498;50.928;11.598;2023-04-06T16:02:54;632.47;;;123.37;;
10890;SDS011;5498;50.928;11.598;2023-04-06T16:05:56;627.90;;;117.60;;
10890;SDS011;5498;50.928;11.598;2023-04-06T16:09:00;631.53;;;121.53;;
10890;SDS011;5498;50.928;11.598;2023-04-06T16:12:02;625.47;;;115.00;;
10890;SDS011;5498;50.928;11.598;2023-04-06T16:15:05;625.47;;;117.73;;
10890;SDS011;5498;50.928;11.598;2023-04-06T16:18:08;623.70;;;109.20;;
10890;SDS011;5498;50.928;11.598;2023-04-06T16:21:13;620.47;;;110.27;;
10890;SDS011;5498;50.928;11.598;2023-04-06T16:24:17;618.97;;;108.10;;
10890;SDS011;5498;50.928;11.598;2023-04-06T16:27:19;622.43;;;110.37;;
10890;SDS011;5498;50.928;11.598;2023-04-06T16:30:21;627.87;;;116.97;;
10890;SDS011;5498;50.928;11.598;2023-04-06T16:33:25;628.07;;;115.27;;
10890;SDS011;5498;50.928;11.598;2023-04-06T16:36:27;623.57;;;110.37;;
10890;SDS011;5498;50.928;11.598;2023-04-06T16:39:31;630.50;;;117.77;;
10890;SDS011;5498;50.928;11.598;2023-04-06T16:42:33;632.13;;;119.13;;
10890;SDS011;5498;50.928;11.598;2023-04-06T16:45:35;630.07;;;118.77;;
10890;SDS011;5498;50.928;11.598;2023-04-06T16:48:37;631.50;;;120.57;;
10890;SDS011;5498;50.928;11.598;2023-04-06T16:51:40;632.17;;;117.37;;
10890;SDS011;5498;50.928;11.598;2023-04-06T16:54:43;626.83;;;115.20;;
10890;SDS011;5498;50.928;11.598;2023-04-06T16:57:45;635.93;;;124.43;;
10890;SDS011;5498;50.928;11.598;2023-04-06T17:00:48;629.30;;;118.83;;
10890;SDS011;5498;50.928;11.598;2023-04-06T17:03:49;636.60;;;121.97;;
10890;SDS011;5498;50.928;11.598;2023-04-06T17:06:52;630.67;;;121.63;;
10890;SDS011;5498;50.928;11.598;2023-04-06T17:09:55;624.67;;;112.67;;
10890;SDS011;5498;50.928;11.598;2023-04-06T17:12:56;615.07;;;108.23;;
10890;SDS011;5498;50.928;11.598;2023-04-06T17:15:58;606.20;;;97.93;;
10890;SDS011;5498;50.928;11.598;2023-04-06T17:19:00;569.40;;;82.47;;
10890;SDS011;5498;50.928;11.598;2023-04-06T17:22:02;560.07;;;79.57;;
10890;SDS011;5498;50.928;11.598;2023-04-06T17:25:06;536.37;;;75.87;;
10890;SDS011;5498;50.928;11.598;2023-04-06T17:28:09;526.00;;;71.40;;